sensor_id;sensor_type;location;lat;lon;timestamp;P1;durP1;ratioP1;P2;durP2;ratioP2
29940;SDS011;16801;53.562;10.038;2023-02-28T00:01:10;2.50;;;2.30;;
29940;SDS011;16801;53.562;10.038;2023-02-28T00:04:32;2.83;;;2.47;;
29940;SDS011;16801;53.562;10.038;2023-02-28T00:07:53;2.20;;;2.00;;
29940;SDS011;16801;53.562;10.038;2023-02-28T00:11:17;2.77;;;2.33;;
29940;SDS011;16801;53.562;10.038;2023-02-28T00:14:38;1.67;;;1.40;;
29940;SDS011;16801;53.562;10.038;2023-02-28T00:18:00;2.23;;;2.10;;
29940;SDS011;16801;53.562;10.038;2023-02-28T00:21:21;4.77;;;3.03;;
29940;SDS011;16801;53.562;10.038;2023-02-28T00:24:42;1.80;;;1.67;;
29940;SDS011;16801;53.562;10.038;2023-02-28T00:28:04;4.50;;;1.53;;
29940;SDS011;16801;53.562;10.038;2023-02-28T00:31:26;1.90;;;1.77;;
29940;SDS011;16801;53.562;10.038;2023-02-28T00:34:48;3.00;;;1.83;;
29940;SDS011;16801;53.562;10.038;2023-02-28T00:38:08;3.73;;;2.20;;
29940;SDS011;16801;53.562;10.038;2023-02-28T00:41:30;3.30;;;1.90;;
29940;SDS011;16801;53.562;10.038;2023-02-28T00:44:50;3.07;;;2.30;;
29940;SDS011;16801;53.562;10.038;2023-02-28T00:48:11;4.80;;;2.40;;
29940;SDS011;16801;53.562;10.038;2023-02-28T00:51:34;1.90;;;1.47;;
29940;SDS011;16801;53.562;10.038;2023-02-28T00:54:55;1.50;;;1.40;;
29940;SDS011;16801;53.562;10.038;2023-02-28T00:58:16;1.83;;;1.73;;
29940;SDS011;16801;53.562;10.038;2023-02-28T01:01:37;3.03;;;2.03;;
29940;SDS011;16801;53.562;10.038;2023-02-28T01:04:59;3.33;;;2.10;;
29940;SDS011;16801;53.562;10.038;2023-02-28T01:08:24;2.83;;;1.47;;
29940;SDS011;16801;53.562;10.038;2023-02-28T01:11:45;1.77;;;1.40;;
29940;SDS011;16801;53.562;10.038;2023-02-28T01:15:06;4.47;;;1.97;;
29940;SDS011;16801;53.562;10.038;2023-02-28T01:18:31;3.17;;;2.50;;
29940;SDS011;16801;53.562;10.038;2023-02-28T01:21:52;2.20;;;2.10;;
29940;SDS011;16801;53.562;10.038;2023-02-28T01:25:14;6.07;;;1.53;;
29940;SDS011;16801;53.562;10.038;2023-02-28T01:28:35;2.10;;;1.80;;
29940;SDS011;16801;53.562;10.038;2023-02-28T01:31:56;1.77;;;1.67;;
29940;SDS011;16801;53.562;10.038;2023-02-28T01:35:18;2.03;;;1.43;;
29940;SDS011;16801;53.562;10.038;2023-02-28T01:38:40;2.50;;;2.10;;
29940;SDS011;16801;53.562;10.038;2023-02-28T01:42:02;1.87;;;1.67;;
29940;SDS011;16801;53.562;10.038;2023-02-28T01:45:24;3.03;;;1.70;;
29940;SDS011;16801;53.562;10.038;2023-02-28T01:48:51;1.23;;;1.23;;
29940;SDS011;16801;53.562;10.038;2023-02-28T01:52:14;4.50;;;2.03;;
29940;SDS011;16801;53.562;10.038;2023-02-28T01:55:37;2.93;;;1.80;;
29940;SDS011;16801;53.562;10.038;2023-02-28T01:59:01;1.80;;;1.70;;
29940;SDS011;16801;53.562;10.038;2023-02-28T02:02:23;1.83;;;1.47;;
29940;SDS011;16801;53.562;10.038;2023-02-28T02:05:44;2.17;;;2.00;;
29940;SDS011;16801;53.562;10.038;2023-02-28T02:09:07;3.60;;;2.07;;
29940;SDS011;16801;53.562;10.038;2023-02-28T02:12:31;2.83;;;1.90;;
29940;SDS011;16801;53.562;10.038;2023-02-28T02:16:08;1.80;;;1.43;;
29940;SDS011;16801;53.562;10.038;2023-02-28T02:20:01;2.37;;;1.97;;
29940;SDS011;16801;53.562;10.038;2023-02-28T02:23:53;3.40;;;1.63;;
29940;SDS011;16801;53.562;10.038;2023-02-28T02:27:25;2.50;;;2.33;;
29940;SDS011;16801;53.562;10.038;2023-02-28T02:31:08;2.67;;;1.77;;
29940;SDS011;16801;53.562;10.038;2023-02-28T02:38:32;1.73;;;1.63;;
29940;SDS011;16801;53.562;10.038;2023-02-28T02:41:58;2.80;;;2.37;;
29940;SDS011;16801;53.562;10.038;2023-02-28T02:45:23;2.33;;;1.87;;
29940;SDS011;16801;53.562;10.038;2023-02-28T02:48:48;5.33;;;1.60;;
29940;SDS011;16801;53.562;10.038;2023-02-28T02:52:15;2.23;;;2.10;;
29940;SDS011;16801;53.562;10.038;2023-02-28T02:55:41;2.63;;;2.20;;
29940;SDS011;16801;53.562;10.038;2023-02-28T02:59:07;3.03;;;2.00;;
29940;SDS011;16801;53.562;10.038;2023-02-28T03:02:32;3.20;;;1.93;;
29940;SDS011;16801;53.562;10.038;2023-02-28T03:05:55;5.40;;;3.37;;
29940;SDS011;16801;53.562;10.038;2023-02-28T03:09:19;2.73;;;2.03;;
29940;SDS011;16801;53.562;10.038;2023-02-28T03:12:41;2.63;;;2.43;;
29940;SDS011;16801;53.562;10.038;2023-02-28T03:20:07;1.67;;;1.57;;
29940;SDS011;16801;53.562;10.038;2023-02-28T03:23:38;7.10;;;2.03;;
29940;SDS011;16801;53.562;10.038;2023-02-28T03:27:05;4.30;;;3.90;;
29940;SDS011;16801;53.562;10.038;2023-02-28T03:30:32;5.63;;;3.43;;
29940;SDS011;16801;53.562;10.038;2023-02-28T03:34:01;2.97;;;2.60;;
29940;SDS011;16801;53.562;10.038;2023-02-28T03:37:26;4.27;;;3.30;;
29940;SDS011;16801;53.562;10.038;2023-02-28T03:40:51;3.60;;;2.57;;
29940;SDS011;16801;53.562;10.038;2023-02-28T03:44:18;2.53;;;2.33;;
29940;SDS011;16801;53.562;10.038;2023-02-28T03:47:44;4.70;;;2.87;;
29940;SDS011;16801;53.562;10.038;2023-02-28T03:51:10;3.70;;;3.33;;
29940;SDS011;16801;53.562;10.038;2023-02-28T03:54:38;3.43;;;2.73;;
29940;SDS011;16801;53.562;10.038;2023-02-28T03:58:04;9.50;;;2.20;;
29940;SDS011;16801;53.562;10.038;2023-02-28T04:01:33;2.30;;;2.03;;
29940;SDS011;16801;53.562;10.038;2023-02-28T04:04:59;2.37;;;2.17;;
29940;SDS011;16801;53.562;10.038;2023-02-28T04:08:20;5.30;;;3.03;;
29940;SDS011;16801;53.562;10.038;2023-02-28T04:11:42;5.60;;;2.77;;
29940;SDS011;16801;53.562;10.038;2023-02-28T04:15:05;3.77;;;3.40;;
29940;SDS011;16801;53.562;10.038;2023-02-28T04:18:28;3.53;;;3.10;;
29940;SDS011;16801;53.562;10.038;2023-02-28T04:21:50;4.47;;;4.07;;
29940;SDS011;16801;53.562;10.038;2023-02-28T04:25:12;6.23;;;3.10;;
29940;SDS011;16801;53.562;10.038;2023-02-28T04:28:33;2.43;;;2.20;;
29940;SDS011;16801;53.562;10.038;2023-02-28T04:31:54;3.70;;;3.40;;
29940;SDS011;16801;53.562;10.038;2023-02-28T04:35:18;4.70;;;3.07;;
29940;SDS011;16801;53.562;10.038;2023-02-28T04:38:39;3.47;;;2.67;;
29940;SDS011;16801;53.562;10.038;2023-02-28T04:42:00;14.10;;;10.53;;
29940;SDS011;16801;53.562;10.038;2023-02-28T04:45:21;32.60;;;24.17;;
29940;SDS011;16801;53.562;10.038;2023-02-28T04:48:42;15.40;;;10.43;;
29940;SDS011;16801;53.562;10.038;2023-02-28T04:52:05;6.30;;;5.70;;
29940;SDS011;16801;53.562;10.038;2023-02-28T04:55:27;3.90;;;3.33;;
29940;SDS011;16801;53.562;10.038;2023-02-28T04:58:48;3.30;;;3.00;;
29940;SDS011;16801;53.562;10.038;2023-02-28T05:02:10;2.80;;;2.27;;
29940;SDS011;16801;53.562;10.038;2023-02-28T05:05:31;10.07;;;6.13;;
29940;SDS011;16801;53.562;10.038;2023-02-28T05:08:53;24.63;;;18.53;;
29940;SDS011;16801;53.562;10.038;2023-02-28T05:12:14;32.57;;;21.53;;
29940;SDS011;16801;53.562;10.038;2023-02-28T05:15:35;9.60;;;8.23;;
29940;SDS011;16801;53.562;10.038;2023-02-28T05:18:56;4.87;;;4.37;;
29940;SDS011;16801;53.562;10.038;2023-02-28T05:22:17;23.23;;;17.13;;
29940;SDS011;16801;53.562;10.038;2023-02-28T05:25:39;20.60;;;14.00;;
29940;SDS011;16801;53.562;10.038;2023-02-28T05:29:00;7.40;;;5.70;;
29940;SDS011;16801;53.562;10.038;2023-02-28T05:32:21;6.27;;;4.73;;
29940;SDS011;16801;53.562;10.038;2023-02-28T05:35:41;3.43;;;3.13;;
29940;SDS011;16801;53.562;10.038;2023-02-28T05:39:02;4.73;;;3.27;;
29940;SDS011;16801;53.562;10.038;2023-02-28T05:42:26;4.20;;;3.00;;
29940;SDS011;16801;53.562;10.038;2023-02-28T05:45:47;6.50;;;4.03;;
29940;SDS011;16801;53.562;10.038;2023-02-28T05:49:08;3.97;;;3.37;;
29940;SDS011;16801;53.562;10.038;2023-02-28T05:52:29;7.73;;;3.53;;
29940;SDS011;16801;53.562;10.038;2023-02-28T05:55:50;4.13;;;3.20;;
29940;SDS011;16801;53.562;10.038;2023-02-28T05:59:12;8.37;;;2.77;;
29940;SDS011;16801;53.562;10.038;2023-02-28T06:02:34;5.30;;;4.73;;
29940;SDS011;16801;53.562;10.038;2023-02-28T06:05:55;5.70;;;3.90;;
29940;SDS011;16801;53.562;10.038;2023-02-28T06:09:16;3.97;;;3.63;;
29940;SDS011;16801;53.562;10.038;2023-02-28T06:12:38;4.97;;;3.70;;
29940;SDS011;16801;53.562;10.038;2023-02-28T06:16:02;9.07;;;3.50;;
29940;SDS011;16801;53.562;10.038;2023-02-28T06:19:23;3.47;;;3.17;;
29940;SDS011;16801;53.562;10.038;2023-02-28T06:22:44;5.03;;;4.60;;
29940;SDS011;16801;53.562;10.038;2023-02-28T06:26:06;7.90;;;4.90;;
29940;SDS011;16801;53.562;10.038;2023-02-28T06:29:27;4.20;;;3.43;;
29940;SDS011;16801;53.562;10.038;2023-02-28T06:32:49;6.50;;;4.50;;
29940;SDS011;16801;53.562;10.038;2023-02-28T06:36:10;4.17;;;3.77;;
29940;SDS011;16801;53.562;10.038;2023-02-28T06:39:32;8.33;;;3.50;;
29940;SDS011;16801;53.562;10.038;2023-02-28T06:42:53;4.43;;;3.27;;
29940;SDS011;16801;53.562;10.038;2023-02-28T06:46:14;4.17;;;3.20;;
29940;SDS011;16801;53.562;10.038;2023-02-28T06:49:37;6.77;;;3.60;;
29940;SDS011;16801;53.562;10.038;2023-02-28T06:52:58;3.57;;;3.23;;
29940;SDS011;16801;53.562;10.038;2023-02-28T06:56:19;5.60;;;3.20;;
29940;SDS011;16801;53.562;10.038;2023-02-28T06:59:40;4.50;;;3.87;;
29940;SDS011;16801;53.562;10.038;2023-02-28T07:03:01;5.10;;;3.23;;
29940;SDS011;16801;53.562;10.038;2023-02-28T07:06:24;4.90;;;3.73;;
29940;SDS011;16801;53.562;10.038;2023-02-28T07:09:45;6.63;;;3.97;;
29940;SDS011;16801;53.562;10.038;2023-02-28T07:13:06;5.20;;;4.77;;
29940;SDS011;16801;53.562;10.038;2023-02-28T07:16:27;8.00;;;3.67;;
29940;SDS011;16801;53.562;10.038;2023-02-28T07:19:48;5.37;;;4.13;;
29940;SDS011;16801;53.562;10.038;2023-02-28T07:23:10;7.63;;;4.53;;
29940;SDS011;16801;53.562;10.038;2023-02-28T07:26:31;4.87;;;4.10;;
29940;SDS011;16801;53.562;10.038;2023-02-28T07:29:53;5.20;;;3.67;;
29940;SDS011;16801;53.562;10.038;2023-02-28T07:33:15;6.57;;;4.07;;
29940;SDS011;16801;53.562;10.038;2023-02-28T07:36:36;5.87;;;3.83;;
29940;SDS011;16801;53.562;10.038;2023-02-28T07:39:58;8.67;;;6.10;;
29940;SDS011;16801;53.562;10.038;2023-02-28T07:43:20;10.37;;;6.10;;
29940;SDS011;16801;53.562;10.038;2023-02-28T07:46:40;6.00;;;4.30;;
29940;SDS011;16801;53.562;10.038;2023-02-28T07:50:01;8.67;;;5.50;;
29940;SDS011;16801;53.562;10.038;2023-02-28T07:53:22;9.67;;;4.70;;
29940;SDS011;16801;53.562;10.038;2023-02-28T07:56:44;8.63;;;5.40;;
29940;SDS011;16801;53.562;10.038;2023-02-28T08:00:06;4.97;;;3.63;;
29940;SDS011;16801;53.562;10.038;2023-02-28T08:03:33;10.13;;;5.07;;
29940;SDS011;16801;53.562;10.038;2023-02-28T08:06:55;12.40;;;4.57;;
29940;SDS011;16801;53.562;10.038;2023-02-28T08:10:16;5.83;;;4.43;;
29940;SDS011;16801;53.562;10.038;2023-02-28T08:13:38;8.90;;;4.63;;
29940;SDS011;16801;53.562;10.038;2023-02-28T08:16:59;5.27;;;4.30;;
29940;SDS011;16801;53.562;10.038;2023-02-28T08:20:20;7.37;;;5.50;;
29940;SDS011;16801;53.562;10.038;2023-02-28T08:23:41;6.83;;;4.97;;
29940;SDS011;16801;53.562;10.038;2023-02-28T08:27:02;6.67;;;4.93;;
29940;SDS011;16801;53.562;10.038;2023-02-28T08:30:24;5.47;;;4.80;;
29940;SDS011;16801;53.562;10.038;2023-02-28T08:33:45;3.87;;;3.53;;
29940;SDS011;16801;53.562;10.038;2023-02-28T08:37:08;7.27;;;3.40;;
29940;SDS011;16801;53.562;10.038;2023-02-28T08:40:28;5.33;;;4.33;;
29940;SDS011;16801;53.562;10.038;2023-02-28T08:43:49;9.50;;;5.07;;
29940;SDS011;16801;53.562;10.038;2023-02-28T08:47:11;7.50;;;6.23;;
29940;SDS011;16801;53.562;10.038;2023-02-28T08:50:32;9.10;;;4.80;;
29940;SDS011;16801;53.562;10.038;2023-02-28T08:53:53;6.00;;;4.77;;
29940;SDS011;16801;53.562;10.038;2023-02-28T08:57:15;9.00;;;4.10;;
29940;SDS011;16801;53.562;10.038;2023-02-28T09:00:36;5.07;;;3.83;;
29940;SDS011;16801;53.562;10.038;2023-02-28T09:03:58;5.20;;;4.67;;
29940;SDS011;16801;53.562;10.038;2023-02-28T09:07:21;3.50;;;2.87;;
29940;SDS011;16801;53.562;10.038;2023-02-28T09:10:42;7.47;;;4.50;;
29940;SDS011;16801;53.562;10.038;2023-02-28T09:14:03;9.13;;;3.83;;
29940;SDS011;16801;53.562;10.038;2023-02-28T09:17:23;3.23;;;2.73;;
29940;SDS011;16801;53.562;10.038;2023-02-28T09:20:46;4.57;;;2.80;;
29940;SDS011;16801;53.562;10.038;2023-02-28T09:24:07;3.00;;;2.40;;
29940;SDS011;16801;53.562;10.038;2023-02-28T09:27:28;3.70;;;3.07;;
29940;SDS011;16801;53.562;10.038;2023-02-28T09:30:49;3.50;;;2.80;;
29940;SDS011;16801;53.562;10.038;2023-02-28T09:34:11;3.97;;;2.53;;
29940;SDS011;16801;53.562;10.038;2023-02-28T09:37:34;6.97;;;2.90;;
29940;SDS011;16801;53.562;10.038;2023-02-28T09:40:56;6.73;;;3.57;;
29940;SDS011;16801;53.562;10.038;2023-02-28T09:44:20;2.23;;;2.03;;
29940;SDS011;16801;53.562;10.038;2023-02-28T09:47:48;2.47;;;2.27;;
29940;SDS011;16801;53.562;10.038;2023-02-28T09:51:14;5.30;;;2.23;;
29940;SDS011;16801;53.562;10.038;2023-02-28T09:54:48;2.00;;;1.70;;
29940;SDS011;16801;53.562;10.038;2023-02-28T09:58:11;2.10;;;1.60;;
29940;SDS011;16801;53.562;10.038;2023-02-28T10:01:40;6.97;;;2.70;;
29940;SDS011;16801;53.562;10.038;2023-02-28T10:05:08;5.20;;;2.77;;
29940;SDS011;16801;53.562;10.038;2023-02-28T10:08:33;1.33;;;1.23;;
29940;SDS011;16801;53.562;10.038;2023-02-28T10:12:03;2.93;;;0.90;;
29940;SDS011;16801;53.562;10.038;2023-02-28T10:15:26;1.60;;;1.27;;
29940;SDS011;16801;53.562;10.038;2023-02-28T10:18:51;6.15;;;5.10;;
29940;SDS011;16801;53.562;10.038;2023-02-28T10:22:24;2.90;;;1.63;;
29940;SDS011;16801;53.562;10.038;2023-02-28T10:25:50;5.85;;;2.20;;
29940;SDS011;16801;53.562;10.038;2023-02-28T10:29:16;1.45;;;1.35;;
29940;SDS011;16801;53.562;10.038;2023-02-28T10:32:37;2.25;;;1.10;;
29940;SDS011;16801;53.562;10.038;2023-02-28T10:35:59;1.65;;;1.55;;
29940;SDS011;16801;53.562;10.038;2023-02-28T10:39:34;1.42;;;1.33;;
29940;SDS011;16801;53.562;10.038;2023-02-28T10:42:57;1.42;;;1.30;;
29940;SDS011;16801;53.562;10.038;2023-02-28T10:46:20;2.65;;;1.00;;
29940;SDS011;16801;53.562;10.038;2023-02-28T10:49:46;1.30;;;1.02;;
29940;SDS011;16801;53.562;10.038;2023-02-28T10:57:08;1.55;;;0.95;;
29940;SDS011;16801;53.562;10.038;2023-02-28T11:00:38;1.60;;;1.20;;
29940;SDS011;16801;53.562;10.038;2023-02-28T11:04:00;5.22;;;1.80;;
29940;SDS011;16801;53.562;10.038;2023-02-28T11:07:23;1.40;;;1.25;;
29940;SDS011;16801;53.562;10.038;2023-02-28T11:10:48;1.10;;;1.00;;
29940;SDS011;16801;53.562;10.038;2023-02-28T11:14:17;1.38;;;1.27;;
29940;SDS011;16801;53.562;10.038;2023-02-28T11:17:41;3.70;;;1.77;;
29940;SDS011;16801;53.562;10.038;2023-02-28T11:21:04;1.60;;;1.30;;
29940;SDS011;16801;53.562;10.038;2023-02-28T11:24:26;1.92;;;1.10;;
29940;SDS011;16801;53.562;10.038;2023-02-28T11:27:50;2.75;;;1.67;;
29940;SDS011;16801;53.562;10.038;2023-02-28T11:31:16;1.50;;;1.40;;
29940;SDS011;16801;53.562;10.038;2023-02-28T11:34:38;2.08;;;1.90;;
29940;SDS011;16801;53.562;10.038;2023-02-28T11:38:01;4.60;;;2.25;;
29940;SDS011;16801;53.562;10.038;2023-02-28T11:41:35;3.65;;;1.02;;
29940;SDS011;16801;53.562;10.038;2023-02-28T11:45:12;2.00;;;1.27;;
29940;SDS011;16801;53.562;10.038;2023-02-28T11:48:44;1.52;;;1.42;;
29940;SDS011;16801;53.562;10.038;2023-02-28T11:52:16;2.03;;;1.88;;
29940;SDS011;16801;53.562;10.038;2023-02-28T11:55:44;1.58;;;1.48;;
29940;SDS011;16801;53.562;10.038;2023-02-28T11:59:21;1.73;;;1.63;;
29940;SDS011;16801;53.562;10.038;2023-02-28T12:02:58;3.53;;;1.45;;
29940;SDS011;16801;53.562;10.038;2023-02-28T12:06:33;1.52;;;1.42;;
29940;SDS011;16801;53.562;10.038;2023-02-28T12:10:02;5.07;;;1.75;;
29940;SDS011;16801;53.562;10.038;2023-02-28T12:13:39;3.03;;;2.08;;
29940;SDS011;16801;53.562;10.038;2023-02-28T12:17:12;4.43;;;1.73;;
29940;SDS011;16801;53.562;10.038;2023-02-28T12:20:43;1.55;;;1.45;;
29940;SDS011;16801;53.562;10.038;2023-02-28T12:24:16;1.48;;;1.38;;
29940;SDS011;16801;53.562;10.038;2023-02-28T12:27:48;1.58;;;1.48;;
29940;SDS011;16801;53.562;10.038;2023-02-28T12:31:15;3.42;;;1.63;;
29940;SDS011;16801;53.562;10.038;2023-02-28T12:34:41;1.67;;;1.58;;
29940;SDS011;16801;53.562;10.038;2023-02-28T12:38:08;2.25;;;1.33;;
29940;SDS011;16801;53.562;10.038;2023-02-28T12:41:34;1.95;;;1.20;;
29940;SDS011;16801;53.562;10.038;2023-02-28T12:45:01;1.38;;;0.77;;
29940;SDS011;16801;53.562;10.038;2023-02-28T12:48:31;1.30;;;1.20;;
29940;SDS011;16801;53.562;10.038;2023-02-28T12:51:58;1.77;;;1.20;;
29940;SDS011;16801;53.562;10.038;2023-02-28T12:55:21;1.90;;;1.25;;
29940;SDS011;16801;53.562;10.038;2023-02-28T12:58:48;2.05;;;0.93;;
29940;SDS011;16801;53.562;10.038;2023-02-28T13:02:20;1.90;;;1.70;;
29940;SDS011;16801;53.562;10.038;2023-02-28T13:10:05;6.63;;;5.38;;
29940;SDS011;16801;53.562;10.038;2023-02-28T13:13:28;3.53;;;2.58;;
29940;SDS011;16801;53.562;10.038;2023-02-28T13:16:58;3.40;;;1.63;;
29940;SDS011;16801;53.562;10.038;2023-02-28T13:20:23;3.47;;;1.17;;
29940;SDS011;16801;53.562;10.038;2023-02-28T13:24:03;2.78;;;1.50;;
29940;SDS011;16801;53.562;10.038;2023-02-28T13:27:32;1.70;;;1.33;;
29940;SDS011;16801;53.562;10.038;2023-02-28T13:31:00;0.80;;;0.80;;
29940;SDS011;16801;53.562;10.038;2023-02-28T13:34:25;3.38;;;1.20;;
29940;SDS011;16801;53.562;10.038;2023-02-28T13:37:47;1.98;;;1.25;;
29940;SDS011;16801;53.562;10.038;2023-02-28T13:48:46;2.30;;;1.67;;
29940;SDS011;16801;53.562;10.038;2023-02-28T13:52:07;1.90;;;1.05;;
29940;SDS011;16801;53.562;10.038;2023-02-28T13:55:37;1.38;;;1.23;;
29940;SDS011;16801;53.562;10.038;2023-02-28T13:59:12;0.88;;;0.88;;
29940;SDS011;16801;53.562;10.038;2023-02-28T14:02:47;1.88;;;1.42;;
29940;SDS011;16801;53.562;10.038;2023-02-28T14:06:22;1.95;;;1.48;;
29940;SDS011;16801;53.562;10.038;2023-02-28T14:09:47;1.20;;;1.10;;
29940;SDS011;16801;53.562;10.038;2023-02-28T14:17:07;3.33;;;1.23;;
29940;SDS011;16801;53.562;10.038;2023-02-28T14:20:34;3.70;;;1.70;;
29940;SDS011;16801;53.562;10.038;2023-02-28T14:27:54;6.17;;;1.93;;
29940;SDS011;16801;53.562;10.038;2023-02-28T14:31:25;3.00;;;1.50;;
29940;SDS011;16801;53.562;10.038;2023-02-28T14:34:58;1.27;;;1.03;;
29940;SDS011;16801;53.562;10.038;2023-02-28T14:38:35;2.55;;;0.80;;
29940;SDS011;16801;53.562;10.038;2023-02-28T14:42:02;3.55;;;3.05;;
29940;SDS011;16801;53.562;10.038;2023-02-28T14:45:24;1.07;;;1.00;;
29940;SDS011;16801;53.562;10.038;2023-02-28T14:48:47;2.77;;;1.10;;
29940;SDS011;16801;53.562;10.038;2023-02-28T14:52:12;1.93;;;0.90;;
29940;SDS011;16801;53.562;10.038;2023-02-28T14:55:37;1.00;;;0.90;;
29940;SDS011;16801;53.562;10.038;2023-02-28T14:59:05;3.40;;;1.50;;
29940;SDS011;16801;53.562;10.038;2023-02-28T15:02:42;1.50;;;1.27;;
29940;SDS011;16801;53.562;10.038;2023-02-28T15:06:04;0.80;;;0.80;;
29940;SDS011;16801;53.562;10.038;2023-02-28T15:09:28;1.53;;;1.43;;
29940;SDS011;16801;53.562;10.038;2023-02-28T15:12:51;0.97;;;0.93;;
29940;SDS011;16801;53.562;10.038;2023-02-28T15:16:17;2.40;;;0.80;;
29940;SDS011;16801;53.562;10.038;2023-02-28T15:19:42;1.73;;;1.47;;
29940;SDS011;16801;53.562;10.038;2023-02-28T15:23:07;1.53;;;1.33;;
29940;SDS011;16801;53.562;10.038;2023-02-28T15:26:31;2.33;;;1.67;;
29940;SDS011;16801;53.562;10.038;2023-02-28T15:29:55;0.93;;;0.83;;
29940;SDS011;16801;53.562;10.038;2023-02-28T15:33:18;2.50;;;1.40;;
29940;SDS011;16801;53.562;10.038;2023-02-28T15:36:41;1.93;;;1.30;;
29940;SDS011;16801;53.562;10.038;2023-02-28T15:40:09;1.60;;;1.50;;
29940;SDS011;16801;53.562;10.038;2023-02-28T15:43:36;3.40;;;1.30;;
29940;SDS011;16801;53.562;10.038;2023-02-28T15:46:59;1.33;;;1.10;;
29940;SDS011;16801;53.562;10.038;2023-02-28T15:50:22;2.93;;;1.90;;
29940;SDS011;16801;53.562;10.038;2023-02-28T15:53:45;2.27;;;1.53;;
29940;SDS011;16801;53.562;10.038;2023-02-28T15:57:11;1.47;;;1.37;;
29940;SDS011;16801;53.562;10.038;2023-02-28T16:00:36;2.47;;;1.43;;
29940;SDS011;16801;53.562;10.038;2023-02-28T16:03:58;2.07;;;1.53;;
29940;SDS011;16801;53.562;10.038;2023-02-28T16:07:21;2.07;;;1.53;;
29940;SDS011;16801;53.562;10.038;2023-02-28T16:10:43;2.33;;;0.97;;
29940;SDS011;16801;53.562;10.038;2023-02-28T16:14:04;1.27;;;1.07;;
29940;SDS011;16801;53.562;10.038;2023-02-28T16:17:27;1.67;;;1.47;;
29940;SDS011;16801;53.562;10.038;2023-02-28T16:20:49;1.53;;;1.43;;
29940;SDS011;16801;53.562;10.038;2023-02-28T16:24:10;3.20;;;1.93;;
29940;SDS011;16801;53.562;10.038;2023-02-28T16:27:32;2.40;;;2.03;;
29940;SDS011;16801;53.562;10.038;2023-02-28T16:30:57;1.40;;;1.30;;
29940;SDS011;16801;53.562;10.038;2023-02-28T16:34:21;2.00;;;1.67;;
29940;SDS011;16801;53.562;10.038;2023-02-28T16:37:43;1.50;;;1.00;;
29940;SDS011;16801;53.562;10.038;2023-02-28T16:41:04;2.13;;;1.80;;
29940;SDS011;16801;53.562;10.038;2023-02-28T16:44:27;1.50;;;1.40;;
29940;SDS011;16801;53.562;10.038;2023-02-28T16:47:49;2.63;;;1.63;;
29940;SDS011;16801;53.562;10.038;2023-02-28T16:51:15;3.00;;;2.43;;
29940;SDS011;16801;53.562;10.038;2023-02-28T16:54:36;1.93;;;1.73;;
29940;SDS011;16801;53.562;10.038;2023-02-28T16:57:58;2.57;;;2.03;;
29940;SDS011;16801;53.562;10.038;2023-02-28T17:01:20;2.20;;;1.83;;
29940;SDS011;16801;53.562;10.038;2023-02-28T17:04:41;1.87;;;1.40;;
29940;SDS011;16801;53.562;10.038;2023-02-28T17:08:03;2.20;;;2.10;;
29940;SDS011;16801;53.562;10.038;2023-02-28T17:11:24;3.33;;;1.70;;
29940;SDS011;16801;53.562;10.038;2023-02-28T17:14:45;4.93;;;2.17;;
29940;SDS011;16801;53.562;10.038;2023-02-28T17:18:06;1.70;;;1.47;;
29940;SDS011;16801;53.562;10.038;2023-02-28T17:21:29;2.20;;;1.93;;
29940;SDS011;16801;53.562;10.038;2023-02-28T17:24:52;17.03;;;14.47;;
29940;SDS011;16801;53.562;10.038;2023-02-28T17:28:14;15.50;;;11.07;;
29940;SDS011;16801;53.562;10.038;2023-02-28T17:31:35;6.10;;;3.63;;
29940;SDS011;16801;53.562;10.038;2023-02-28T17:34:57;5.83;;;3.30;;
29940;SDS011;16801;53.562;10.038;2023-02-28T17:38:18;89.27;;;56.87;;
29940;SDS011;16801;53.562;10.038;2023-02-28T17:41:43;85.83;;;58.43;;
29940;SDS011;16801;53.562;10.038;2023-02-28T17:45:05;29.70;;;17.50;;
29940;SDS011;16801;53.562;10.038;2023-02-28T17:48:26;15.23;;;11.27;;
29940;SDS011;16801;53.562;10.038;2023-02-28T17:51:48;19.20;;;13.87;;
29940;SDS011;16801;53.562;10.038;2023-02-28T17:55:10;8.00;;;5.70;;
29940;SDS011;16801;53.562;10.038;2023-02-28T17:58:33;25.33;;;15.50;;
29940;SDS011;16801;53.562;10.038;2023-02-28T18:01:53;19.47;;;11.57;;
29940;SDS011;16801;53.562;10.038;2023-02-28T18:05:14;8.23;;;3.87;;
29940;SDS011;16801;53.562;10.038;2023-02-28T18:08:36;24.13;;;17.30;;
29940;SDS011;16801;53.562;10.038;2023-02-28T18:11:56;101.47;;;63.47;;
29940;SDS011;16801;53.562;10.038;2023-02-28T18:15:19;22.37;;;16.73;;
29940;SDS011;16801;53.562;10.038;2023-02-28T18:18:42;31.33;;;17.70;;
29940;SDS011;16801;53.562;10.038;2023-02-28T18:22:04;19.37;;;13.73;;
29940;SDS011;16801;53.562;10.038;2023-02-28T18:25:26;22.03;;;14.40;;
29940;SDS011;16801;53.562;10.038;2023-02-28T18:28:47;32.23;;;23.93;;
29940;SDS011;16801;53.562;10.038;2023-02-28T18:32:09;14.40;;;8.53;;
29940;SDS011;16801;53.562;10.038;2023-02-28T18:35:30;27.43;;;18.03;;
29940;SDS011;16801;53.562;10.038;2023-02-28T18:38:54;46.00;;;31.90;;
29940;SDS011;16801;53.562;10.038;2023-02-28T18:42:15;23.43;;;19.37;;
29940;SDS011;16801;53.562;10.038;2023-02-28T18:45:35;44.17;;;33.77;;
29940;SDS011;16801;53.562;10.038;2023-02-28T18:48:58;12.57;;;7.77;;
29940;SDS011;16801;53.562;10.038;2023-02-28T18:52:19;6.87;;;3.87;;
29940;SDS011;16801;53.562;10.038;2023-02-28T18:55:41;4.83;;;3.20;;
29940;SDS011;16801;53.562;10.038;2023-02-28T18:59:01;3.77;;;2.73;;
29940;SDS011;16801;53.562;10.038;2023-02-28T19:02:23;15.97;;;11.23;;
29940;SDS011;16801;53.562;10.038;2023-02-28T19:05:45;16.23;;;12.67;;
29940;SDS011;16801;53.562;10.038;2023-02-28T19:09:05;18.97;;;14.43;;
29940;SDS011;16801;53.562;10.038;2023-02-28T19:12:27;47.43;;;31.60;;
29940;SDS011;16801;53.562;10.038;2023-02-28T19:15:48;52.87;;;33.47;;
29940;SDS011;16801;53.562;10.038;2023-02-28T19:19:09;103.53;;;66.90;;
29940;SDS011;16801;53.562;10.038;2023-02-28T19:22:31;48.87;;;31.80;;
29940;SDS011;16801;53.562;10.038;2023-02-28T19:25:53;16.93;;;9.70;;
29940;SDS011;16801;53.562;10.038;2023-02-28T19:29:17;45.87;;;26.10;;
29940;SDS011;16801;53.562;10.038;2023-02-28T19:32:38;38.77;;;27.93;;
29940;SDS011;16801;53.562;10.038;2023-02-28T19:35:59;40.00;;;22.33;;
29940;SDS011;16801;53.562;10.038;2023-02-28T19:39:22;9.37;;;5.30;;
29940;SDS011;16801;53.562;10.038;2023-02-28T19:42:43;19.70;;;13.13;;
29940;SDS011;16801;53.562;10.038;2023-02-28T19:46:04;9.70;;;7.77;;
29940;SDS011;16801;53.562;10.038;2023-02-28T19:49:27;39.67;;;28.60;;
29940;SDS011;16801;53.562;10.038;2023-02-28T19:52:48;20.07;;;12.50;;
29940;SDS011;16801;53.562;10.038;2023-02-28T19:56:11;9.73;;;6.50;;
29940;SDS011;16801;53.562;10.038;2023-02-28T19:59:32;4.53;;;3.03;;
29940;SDS011;16801;53.562;10.038;2023-02-28T20:02:53;9.73;;;8.23;;
29940;SDS011;16801;53.562;10.038;2023-02-28T20:06:13;18.00;;;11.70;;
29940;SDS011;16801;53.562;10.038;2023-02-28T20:09:34;9.23;;;6.13;;
29940;SDS011;16801;53.562;10.038;2023-02-28T20:12:57;11.03;;;5.07;;
29940;SDS011;16801;53.562;10.038;2023-02-28T20:16:18;26.80;;;14.67;;
29940;SDS011;16801;53.562;10.038;2023-02-28T20:19:39;44.30;;;28.17;;
29940;SDS011;16801;53.562;10.038;2023-02-28T20:23:00;19.33;;;12.57;;
29940;SDS011;16801;53.562;10.038;2023-02-28T20:26:21;32.03;;;22.67;;
29940;SDS011;16801;53.562;10.038;2023-02-28T20:29:43;23.17;;;14.07;;
29940;SDS011;16801;53.562;10.038;2023-02-28T20:33:04;32.07;;;21.23;;
29940;SDS011;16801;53.562;10.038;2023-02-28T20:36:25;46.13;;;32.17;;